Time;durP1;ratioP1;P1;durP2;ratioP2;P2;SDS_P1;SDS_P2;PMS_P1;PMS_P2;Temp;Humidity;BMP_temperature;BMP_pressure;BME280_temperature;BME280_humidity;BME280_pressure;Samples;Min_cycle;Max_cycle;Signal;HPM_P1;HPM_P2
2023/08/09 00:00:49;;;;;;;0.10;0.10;;;;;;;-144.99;100.00;67352.69;4996621;28;20177;-81
2023/08/09 00:03:14;;;;;;;0.30;0.30;;;;;;;-144.99;100.00;67352.69;4995940;28;20197;-79
2023/08/09 00:05:40;;;;;;;0.30;0.30;;;;;;;-144.99;100.00;67352.69;4994835;28;20220;-79
2023/08/09 00:08:05;;;;;;;0.70;0.70;;;;;;;-144.99;100.00;67352.69;4993160;28;20283;-79
2023/08/09 00:10:33;;;;;;;0.20;0.20;;;;;;;-144.99;100.00;67352.69;4993006;28;20180;-79
2023/08/09 00:12:58;;;;;;;11.33;1.60;;;;;;;-144.99;100.00;67352.69;4990943;28;20717;-79
2023/08/09 00:15:23;;;;;;;0.67;0.67;;;;;;;-144.99;100.00;67352.69;4991371;28;20233;-79
2023/08/09 00:17:49;;;;;;;0.70;0.70;;;;;;;-144.99;100.00;67352.69;4991324;28;20558;-79
2023/08/09 00:20:14;;;;;;;0.10;0.10;;;;;;;-144.99;100.00;67352.69;4992782;28;20216;-79
2023/08/09 00:22:41;;;;;;;0.70;0.70;;;;;;;-144.99;100.00;67352.69;4992172;28;20248;-79
2023/08/09 00:25:09;;;;;;;0.30;0.30;;;;;;;-144.99;100.00;67352.69;4992790;28;20691;-79
2023/08/09 00:27:35;;;;;;;0.67;0.67;;;;;;;-144.99;100.00;67352.69;4992714;28;20606;-79
2023/08/09 00:30:00;;;;;;;0.33;0.33;;;;;;;-144.99;100.00;67352.69;4992600;28;20177;-80
2023/08/09 00:32:26;;;;;;;0.23;0.23;;;;;;;-144.99;100.00;67352.69;4992258;28;20185;-79
2023/08/09 00:34:51;;;;;;;0.57;0.57;;;;;;;-144.99;100.00;67352.69;4992540;28;20201;-79
2023/08/09 00:37:17;;;;;;;0.60;0.60;;;;;;;-144.99;100.00;67352.69;4992614;28;20263;-79
2023/08/09 00:39:42;;;;;;;0.47;0.47;;;;;;;-144.99;100.00;67352.69;4992630;28;20193;-78
2023/08/09 00:42:08;;;;;;;0.20;0.20;;;;;;;-144.99;100.00;67352.69;4991547;28;20185;-79
2023/08/09 00:44:33;;;;;;;1.37;0.60;;;;;;;-144.99;100.00;67352.69;4992141;28;20280;-79
2023/08/09 00:46:59;;;;;;;0.87;0.70;;;;;;;-144.99;100.00;67352.69;4991304;28;20181;-79
2023/08/09 00:49:25;;;;;;;0.87;0.77;;;;;;;-144.99;100.00;67352.69;4992520;28;20185;-79
2023/08/09 00:51:51;;;;;;;0.77;0.77;;;;;;;-144.99;100.00;67352.69;4992355;28;20251;-79
2023/08/09 00:54:17;;;;;;;0.93;0.70;;;;;;;-144.99;100.00;67352.69;4992117;28;20197;-79
2023/08/09 00:56:44;;;;;;;0.97;0.97;;;;;;;-144.99;100.00;67352.69;4992518;28;20195;-80
2023/08/09 00:59:09;;;;;;;0.73;0.73;;;;;;;-144.99;100.00;67352.69;4992368;28;20212;-79
2023/08/09 01:01:35;;;;;;;1.27;1.03;;;;;;;-144.99;100.00;67352.69;4991119;28;20208;-79
2023/08/09 01:04:01;;;;;;;0.30;0.30;;;;;;;-144.99;100.00;67352.69;4992117;28;20284;-79
2023/08/09 01:06:41;;;;;;;0.60;0.60;;;;;;;-144.99;100.00;67352.69;4992500;28;20228;-79
2023/08/09 01:09:26;;;;;;;0.63;0.60;;;;;;;-144.99;100.00;67352.69;4984561;28;20259;-79
2023/08/09 01:11:59;;;;;;;0.90;0.83;;;;;;;-144.99;100.00;67352.69;4992281;28;20185;-79
2023/08/09 01:14:27;;;;;;;0.30;0.30;;;;;;;-144.99;100.00;67352.69;4991981;28;20193;-79
2023/08/09 01:16:53;;;;;;;0.30;0.30;;;;;;;-144.99;100.00;67352.69;4993236;28;20553;-79
2023/08/09 01:19:37;;;;;;;0.10;0.10;;;;;;;-144.99;100.00;67352.69;4995983;28;20196;-79
2023/08/09 01:22:23;;;;;;;0.80;0.80;;;;;;;-144.99;100.00;67352.69;4996065;28;20212;-79
2023/08/09 01:24:49;;;;;;;0.53;0.53;;;;;;;-144.99;100.00;67352.69;4995829;28;20641;-79
2023/08/09 01:27:14;;;;;;;0.50;0.50;;;;;;;-144.99;100.00;67352.69;4995864;28;20205;-80
2023/08/09 01:29:41;;;;;;;0.60;0.60;;;;;;;-144.99;100.00;67352.69;4995912;28;20336;-79
2023/08/09 01:32:06;;;;;;;1.10;1.00;;;;;;;-144.99;100.00;67352.69;4995508;28;20683;-79
2023/08/09 01:34:32;;;;;;;0.20;0.17;;;;;;;-144.99;100.00;67352.69;4995601;28;20197;-79
2023/08/09 01:37:05;;;;;;;1.37;1.20;;;;;;;-144.99;100.00;67352.69;4994267;28;20188;-79
2023/08/09 01:39:34;;;;;;;0.57;0.40;;;;;;;-144.99;100.00;67352.69;4995704;28;20184;-79
2023/08/09 01:42:00;;;;;;;1.67;1.57;;;;;;;-144.99;100.00;67352.69;4995145;28;20611;-79
2023/08/09 01:44:26;;;;;;;2.10;0.93;;;;;;;-144.99;100.00;67352.69;4993747;28;20303;-79
2023/08/09 01:46:51;;;;;;;0.13;0.13;;;;;;;-144.99;100.00;67352.69;4995366;28;20248;-79
2023/08/09 01:49:22;;;;;;;1.23;0.93;;;;;;;-144.99;100.00;67352.69;4995311;28;20185;-79
2023/08/09 01:51:48;;;;;;;0.60;0.60;;;;;;;-144.99;100.00;67352.69;4993905;28;20678;-79
2023/08/09 01:54:14;;;;;;;3.03;0.20;;;;;;;-144.99;100.00;67352.69;4994655;28;20279;-79
2023/08/09 01:56:40;;;;;;;0.90;0.90;;;;;;;-144.99;100.00;67352.69;4994813;28;20273;-79
2023/08/09 01:59:05;;;;;;;0.70;0.70;;;;;;;-144.99;100.00;67352.69;4995209;28;20187;-79
2023/08/09 02:01:32;;;;;;;0.57;0.20;;;;;;;-144.99;100.00;67352.69;4993873;28;20652;-79
2023/08/09 02:03:57;;;;;;;0.77;0.73;;;;;;;-144.99;100.00;67352.69;4994694;28;20731;-79
2023/08/09 02:06:22;;;;;;;0.83;0.83;;;;;;;-144.99;100.00;67352.69;4995165;28;20208;-79
2023/08/09 02:08:48;;;;;;;0.40;0.40;;;;;;;-144.99;100.00;67352.69;4993709;28;20208;-79
2023/08/09 02:11:13;;;;;;;1.27;1.23;;;;;;;-144.99;100.00;67352.69;4997165;28;20215;-80
2023/08/09 02:13:39;;;;;;;0.20;0.20;;;;;;;-144.99;100.00;67352.69;4998951;28;20308;-81
2023/08/09 02:16:06;;;;;;;0.20;0.20;;;;;;;-144.99;100.00;67352.69;5014548;28;20179;-80
2023/08/09 02:18:32;;;;;;;0.93;0.40;;;;;;;-144.99;100.00;67352.69;4999767;28;20249;-80
2023/08/09 02:20:59;;;;;;;0.57;0.57;;;;;;;-144.99;100.00;67352.69;4999704;28;20652;-81
2023/08/09 02:23:25;;;;;;;0.80;0.80;;;;;;;-144.99;100.00;67352.69;4997552;28;20228;-80
2023/08/09 02:25:52;;;;;;;0.20;0.20;;;;;;;-144.99;100.00;67352.69;4999984;28;20181;-80
2023/08/09 02:28:18;;;;;;;0.63;0.40;;;;;;;-144.99;100.00;67352.69;4999199;28;20180;-79
2023/08/09 02:30:45;;;;;;;3.70;2.00;;;;;;;-144.99;100.00;67352.69;4998032;28;20268;-81
2023/08/09 02:33:11;;;;;;;0.83;0.47;;;;;;;-144.99;100.00;67352.69;4999053;28;20261;-80
2023/08/09 02:35:56;;;;;;;0.77;0.60;;;;;;;-144.99;100.00;67352.69;4999133;28;20654;-81
2023/08/09 02:38:24;;;;;;;0.63;0.43;;;;;;;-144.99;100.00;67352.69;5000823;28;20258;-80
2023/08/09 02:40:50;;;;;;;0.50;0.50;;;;;;;-144.99;100.00;67352.69;4997581;28;20189;-80
2023/08/09 02:43:17;;;;;;;0.40;0.40;;;;;;;-144.99;100.00;67352.69;4998989;28;20244;-79
2023/08/09 02:45:42;;;;;;;0.40;0.37;;;;;;;-144.99;100.00;67352.69;4998255;28;20888;-80
2023/08/09 02:48:08;;;;;;;0.33;0.33;;;;;;;-144.99;100.00;67352.69;5000018;28;20213;-80
2023/08/09 02:50:33;;;;;;;2.80;0.87;;;;;;;-144.99;100.00;67352.69;4998899;28;20173;-80
2023/08/09 02:53:01;;;;;;;0.87;0.87;;;;;;;-144.99;100.00;67352.69;4997806;28;20189;-80
2023/08/09 02:55:27;;;;;;;0.93;0.83;;;;;;;-144.99;100.00;67352.69;4997318;28;20572;-80
2023/08/09 02:57:52;;;;;;;0.60;0.60;;;;;;;-144.99;100.00;67352.69;4998415;28;20213;-79
2023/08/09 03:00:19;;;;;;;0.40;0.40;;;;;;;-144.99;100.00;67352.69;4998537;28;20181;-80
2023/08/09 03:02:44;;;;;;;0.53;0.50;;;;;;;-144.99;100.00;67352.69;4997962;28;20177;-80
2023/08/09 03:05:10;;;;;;;0.50;0.50;;;;;;;-144.99;100.00;67352.69;4998924;28;20303;-79
2023/08/09 03:07:38;;;;;;;0.43;0.43;;;;;;;-144.99;100.00;67352.69;4998090;28;20196;-80
2023/08/09 03:10:04;;;;;;;0.73;0.73;;;;;;;-144.99;100.00;67352.69;4997092;28;20200;-80
2023/08/09 03:12:30;;;;;;;0.60;0.60;;;;;;;-144.99;100.00;67352.69;4998626;28;20647;-79
2023/08/09 03:14:55;;;;;;;0.47;0.47;;;;;;;-144.99;100.00;67352.69;4999008;28;20250;-79
2023/08/09 03:17:21;;;;;;;0.43;0.43;;;;;;;-144.99;100.00;67352.69;4998333;28;20169;-79
2023/08/09 03:19:46;;;;;;;6.53;1.07;;;;;;;-144.99;100.00;67352.69;4995986;28;20188;-79
2023/08/09 03:22:12;;;;;;;1.90;1.40;;;;;;;-144.99;100.00;67352.69;4996593;28;20205;-80
2023/08/09 03:24:38;;;;;;;0.83;0.83;;;;;;;-144.99;100.00;67352.69;4995757;28;20767;-80
2023/08/09 03:27:03;;;;;;;0.87;0.83;;;;;;;-144.99;100.00;67352.69;4997044;28;20633;-79
2023/08/09 03:29:29;;;;;;;0.57;0.27;;;;;;;-144.99;100.00;67352.69;4996821;28;20188;-79
2023/08/09 03:31:54;;;;;;;0.73;0.73;;;;;;;-144.99;100.00;67352.69;4993480;28;20659;-79
2023/08/09 03:34:19;;;;;;;0.80;0.73;;;;;;;-144.99;100.00;67352.69;4992828;28;20193;-79
2023/08/09 03:36:45;;;;;;;1.53;1.43;;;;;;;-144.99;100.00;67352.69;4999948;28;20184;-79
2023/08/09 03:39:11;;;;;;;1.70;1.60;;;;;;;-144.99;100.00;67352.69;5008234;28;20718;-79
2023/08/09 03:41:36;;;;;;;2.83;2.63;;;;;;;-144.99;100.00;67352.69;4991038;28;20192;-79
2023/08/09 03:44:02;;;;;;;1.00;1.00;;;;;;;-144.99;100.00;67352.69;4992611;28;20216;-79
2023/08/09 03:46:28;;;;;;;0.67;0.67;;;;;;;-144.99;100.00;67352.69;4991827;28;20273;-78
2023/08/09 03:48:53;;;;;;;1.23;1.13;;;;;;;-144.99;100.00;67352.69;4992907;28;20178;-78
2023/08/09 03:51:19;;;;;;;5.90;1.20;;;;;;;-144.99;100.00;67352.69;4991797;28;21023;-79
2023/08/09 03:53:44;;;;;;;0.43;0.43;;;;;;;-144.99;100.00;67352.69;4991001;28;20205;-78
2023/08/09 03:56:10;;;;;;;2.33;0.93;;;;;;;-144.99;100.00;67352.69;4992741;28;20219;-79
2023/08/09 03:58:35;;;;;;;0.90;0.90;;;;;;;-144.99;100.00;67352.69;4992918;28;20204;-78
2023/08/09 04:01:01;;;;;;;5.33;1.17;;;;;;;-144.99;100.00;67352.69;4999735;28;20181;-79
2023/08/09 04:03:26;;;;;;;0.50;0.50;;;;;;;-144.99;100.00;67352.69;4992221;28;20193;-79
2023/08/09 04:05:52;;;;;;;3.30;1.23;;;;;;;-144.99;100.00;67352.69;4991388;28;20205;-78
2023/08/09 04:08:17;;;;;;;7.10;1.60;;;;;;;-144.99;100.00;67352.69;4992698;28;20195;-79
2023/08/09 04:10:42;;;;;;;1.07;1.07;;;;;;;-144.99;100.00;67352.69;4991519;28;20185;-78
2023/08/09 04:13:08;;;;;;;0.77;0.77;;;;;;;-144.99;100.00;67352.69;4992336;28;20260;-79
2023/08/09 04:15:34;;;;;;;3.33;1.37;;;;;;;-144.99;100.00;67352.69;4992713;28;20207;-79
2023/08/09 04:17:59;;;;;;;1.27;1.27;;;;;;;-144.99;100.00;67352.69;4992656;28;20606;-78
2023/08/09 04:20:26;;;;;;;1.13;1.00;;;;;;;-144.99;100.00;67352.69;4991385;28;20189;-79
2023/08/09 04:22:51;;;;;;;1.73;1.53;;;;;;;-144.99;100.00;67352.69;4992181;28;20226;-79
2023/08/09 04:25:17;;;;;;;1.07;1.03;;;;;;;-144.99;100.00;67352.69;4991452;28;20209;-79
2023/08/09 04:27:43;;;;;;;0.60;0.60;;;;;;;-144.99;100.00;67352.69;4992623;28;20181;-79
2023/08/09 04:30:09;;;;;;;1.20;1.20;;;;;;;-144.99;100.00;67352.69;4991334;28;20689;-79
2023/08/09 04:32:38;;;;;;;0.77;0.77;;;;;;;-144.99;100.00;67352.69;4992163;28;20762;-79
2023/08/09 04:35:04;;;;;;;2.20;1.47;;;;;;;-144.99;100.00;67352.69;4991614;28;20683;-78
2023/08/09 04:37:30;;;;;;;2.43;1.27;;;;;;;-144.99;100.00;67352.69;4992591;28;20181;-79
2023/08/09 04:39:55;;;;;;;1.13;1.00;;;;;;;-144.99;100.00;67352.69;4991298;28;20559;-79
2023/08/09 04:42:21;;;;;;;1.40;1.30;;;;;;;-144.99;100.00;67352.69;4991988;28;20239;-79
2023/08/09 04:44:46;;;;;;;1.00;1.00;;;;;;;-144.99;100.00;67352.69;4992876;28;20201;-79
2023/08/09 04:47:12;;;;;;;1.37;1.27;;;;;;;-144.99;100.00;67352.69;4991257;28;20260;-78
2023/08/09 04:49:37;;;;;;;3.57;1.77;;;;;;;-144.99;100.00;67352.69;4992840;28;20192;-79
2023/08/09 04:52:03;;;;;;;1.43;1.17;;;;;;;-144.99;100.00;67352.69;4992195;28;20192;-78
2023/08/09 04:54:29;;;;;;;1.90;1.77;;;;;;;-144.99;100.00;67352.69;4995679;28;20777;-78
2023/08/09 04:56:54;;;;;;;3.73;1.97;;;;;;;-144.99;100.00;67352.69;5001556;28;20190;-80
2023/08/09 04:59:19;;;;;;;5.23;2.20;;;;;;;-144.99;100.00;67352.69;5001964;28;20200;-81
2023/08/09 05:01:45;;;;;;;0.93;0.93;;;;;;;-144.99;100.00;67352.69;5002492;28;20185;-80
2023/08/09 05:04:10;;;;;;;2.27;2.17;;;;;;;-144.99;100.00;67352.69;5001982;28;20213;-80
2023/08/09 05:06:35;;;;;;;0.83;0.83;;;;;;;-144.99;100.00;67352.69;5001212;28;20181;-80
2023/08/09 05:09:01;;;;;;;9.77;2.37;;;;;;;-144.99;100.00;67352.69;5002638;28;20200;-81
2023/08/09 05:11:27;;;;;;;1.17;1.17;;;;;;;-144.99;100.00;67352.69;5001463;28;20209;-78
2023/08/09 05:13:52;;;;;;;4.23;2.30;;;;;;;-144.99;100.00;67352.69;5017346;28;20197;-81
2023/08/09 05:16:17;;;;;;;1.43;1.33;;;;;;;-144.99;100.00;67352.69;5002233;28;20210;-80
2023/08/09 05:18:42;;;;;;;1.47;1.37;;;;;;;-144.99;100.00;67352.69;5001981;28;20714;-80
2023/08/09 05:21:08;;;;;;;2.03;1.93;;;;;;;-144.99;100.00;67352.69;5001980;28;20242;-79
2023/08/09 05:23:33;;;;;;;1.70;1.60;;;;;;;-144.99;100.00;67352.69;4999538;28;20205;-81
2023/08/09 05:25:59;;;;;;;1.40;1.30;;;;;;;-144.99;100.00;67352.69;5000689;28;20580;-81
2023/08/09 05:28:24;;;;;;;3.57;3.30;;;;;;;-144.99;100.00;67352.69;5000708;28;20648;-80
2023/08/09 05:30:49;;;;;;;0.63;0.63;;;;;;;-144.99;100.00;67352.69;5001829;28;20192;-79
2023/08/09 05:33:15;;;;;;;4.73;2.30;;;;;;;-144.99;100.00;67352.69;5000626;28;20196;-81
2023/08/09 05:35:40;;;;;;;0.83;0.83;;;;;;;-144.99;100.00;67352.69;5001732;28;20232;-80
2023/08/09 05:38:06;;;;;;;8.13;1.90;;;;;;;-144.99;100.00;67352.69;5001840;28;20268;-80
2023/08/09 05:40:31;;;;;;;0.57;0.57;;;;;;;-144.99;100.00;67352.69;5002282;28;20208;-79
2023/08/09 05:42:56;;;;;;;2.23;2.13;;;;;;;-144.99;100.00;67352.69;4998926;28;20181;-80
2023/08/09 05:45:22;;;;;;;1.47;1.37;;;;;;;-144.99;100.00;67352.69;5000451;28;20204;-80
2023/08/09 05:47:47;;;;;;;1.60;1.50;;;;;;;-144.99;100.00;67352.69;4995634;28;20234;-81
2023/08/09 05:50:12;;;;;;;2.80;2.27;;;;;;;-144.99;100.00;67352.69;4995393;28;20189;-80
2023/08/09 05:52:38;;;;;;;2.40;2.30;;;;;;;-144.99;100.00;67352.69;4994830;28;20204;-81
2023/08/09 05:55:04;;;;;;;3.20;2.43;;;;;;;-144.99;100.00;67352.69;4995232;28;20599;-80
2023/08/09 05:57:30;;;;;;;1.23;1.20;;;;;;;-144.99;100.00;67352.69;4998052;28;20276;-80
2023/08/09 05:59:55;;;;;;;1.43;1.43;;;;;;;-144.99;100.00;67352.69;4998608;28;20212;-82
2023/08/09 06:02:20;;;;;;;3.67;2.60;;;;;;;-144.99;100.00;67352.69;4994144;28;20185;-81
2023/08/09 06:04:46;;;;;;;12.63;2.67;;;;;;;-144.99;100.00;67352.69;4994922;28;20710;-81
2023/08/09 06:07:11;;;;;;;2.40;2.17;;;;;;;-144.99;100.00;67352.69;4996151;28;20201;-81
2023/08/09 06:09:38;;;;;;;5.27;3.07;;;;;;;-144.99;100.00;67352.69;4995472;28;20210;-81
2023/08/09 06:12:04;;;;;;;1.97;1.53;;;;;;;-144.99;100.00;67352.69;4993929;28;20193;-81
2023/08/09 06:14:30;;;;;;;0.70;0.70;;;;;;;-144.99;100.00;67352.69;4993936;28;20201;-81
2023/08/09 06:16:56;;;;;;;2.10;1.87;;;;;;;-144.99;100.00;67352.69;4994182;28;20189;-80
2023/08/09 06:19:21;;;;;;;1.03;1.00;;;;;;;-144.99;100.00;67352.69;4995578;28;20188;-81
2023/08/09 06:21:47;;;;;;;3.77;2.17;;;;;;;-144.99;100.00;67352.69;4995162;28;20767;-81
2023/08/09 06:24:12;;;;;;;9.27;2.37;;;;;;;-144.99;100.00;67352.69;4994468;28;20208;-81
2023/08/09 06:26:37;;;;;;;3.07;0.97;;;;;;;-144.99;100.00;67352.69;4991512;28;20216;-81
2023/08/09 06:29:03;;;;;;;1.70;1.60;;;;;;;-144.99;100.00;67352.69;4994341;28;20181;-80
2023/08/09 06:31:28;;;;;;;1.30;1.20;;;;;;;-144.99;100.00;67352.69;4994337;28;20185;-81
2023/08/09 06:33:55;;;;;;;0.73;0.60;;;;;;;-144.99;100.00;67352.69;4994642;28;20223;-82
2023/08/09 06:36:20;;;;;;;1.03;0.90;;;;;;;-144.99;100.00;67352.69;4994885;28;20189;-81
2023/08/09 06:38:46;;;;;;;1.50;1.40;;;;;;;-144.99;100.00;67352.69;4994488;28;20189;-80
2023/08/09 06:41:11;;;;;;;1.67;1.40;;;;;;;-144.99;100.00;67352.69;4994727;28;20197;-82
2023/08/09 06:43:37;;;;;;;3.33;2.70;;;;;;;-144.99;100.00;67352.69;4994137;28;20205;-82
2023/08/09 06:46:02;;;;;;;2.57;0.90;;;;;;;-144.99;100.00;67352.69;4993315;28;20193;-81
2023/08/09 06:48:29;;;;;;;0.83;0.83;;;;;;;-144.99;100.00;67352.69;4992900;28;20185;-81
2023/08/09 06:50:59;;;;;;;0.50;0.50;;;;;;;-144.99;100.00;67352.69;4992897;28;20558;-80
2023/08/09 06:53:24;;;;;;;1.27;1.17;;;;;;;-144.99;100.00;67352.69;4993366;28;20242;-81
2023/08/09 06:55:50;;;;;;;6.57;2.00;;;;;;;-144.99;100.00;67352.69;4993567;28;20686;-81
2023/08/09 06:58:15;;;;;;;1.30;1.00;;;;;;;-144.99;100.00;67352.69;4993819;28;20188;-81
2023/08/09 07:00:41;;;;;;;7.70;1.50;;;;;;;-144.99;100.00;67352.69;4993911;28;20644;-81
2023/08/09 07:03:10;;;;;;;0.40;0.40;;;;;;;-144.99;100.00;67352.69;4991718;28;20185;-82
2023/08/09 07:05:35;;;;;;;0.70;0.70;;;;;;;-144.99;100.00;67352.69;4995021;28;20213;-81
2023/08/09 07:08:01;;;;;;;0.53;0.53;;;;;;;-144.99;100.00;67352.69;4994490;28;20233;-82
2023/08/09 07:10:26;;;;;;;8.60;0.87;;;;;;;-144.99;100.00;67352.69;4994474;28;20668;-82
2023/08/09 07:12:52;;;;;;;0.63;0.63;;;;;;;-144.99;100.00;67352.69;4993216;28;20212;-81
2023/08/09 07:15:17;;;;;;;0.93;0.63;;;;;;;-144.99;100.00;67352.69;4994171;28;20193;-82
2023/08/09 07:17:43;;;;;;;1.33;1.23;;;;;;;-144.99;100.00;67352.69;4994097;28;20181;-82
2023/08/09 07:20:14;;;;;;;20.70;0.80;;;;;;;-144.99;100.00;67352.69;4984781;28;20220;-82
2023/08/09 07:22:40;;;;;;;1.03;0.90;;;;;;;-144.99;100.00;67352.69;4992114;28;20196;-82
2023/08/09 07:25:09;;;;;;;0.30;0.30;;;;;;;-144.99;100.00;67352.69;4993771;28;20235;-82
2023/08/09 07:27:40;;;;;;;0.63;0.63;;;;;;;-144.99;100.00;67352.69;4992360;28;20193;-82
2023/08/09 07:30:07;;;;;;;11.23;0.90;;;;;;;-144.99;100.00;67352.69;4993213;28;20181;-82
2023/08/09 07:32:32;;;;;;;0.20;0.20;;;;;;;-144.99;100.00;67352.69;4993165;28;20181;-82
2023/08/09 07:34:57;;;;;;;1.03;0.67;;;;;;;-144.99;100.00;67352.69;4993503;28;20197;-82
2023/08/09 07:37:23;;;;;;;0.60;0.60;;;;;;;-144.99;100.00;67352.69;4993790;28;20177;-82
2023/08/09 07:39:48;;;;;;;2.10;0.40;;;;;;;-144.99;100.00;67352.69;4992890;28;20272;-82
2023/08/09 07:42:13;;;;;;;1.10;0.90;;;;;;;-144.99;100.00;67352.69;5011210;28;20204;-82
2023/08/09 07:44:39;;;;;;;0.20;0.20;;;;;;;-144.99;100.00;67352.69;4994742;28;20656;-81
2023/08/09 07:47:04;;;;;;;1.03;0.57;;;;;;;-144.99;100.00;67352.69;4993887;28;20181;-82
2023/08/09 07:49:29;;;;;;;0.03;0.03;;;;;;;-144.99;100.00;67352.69;4997202;28;20181;-82
2023/08/09 07:51:55;;;;;;;0.70;0.33;;;;;;;-144.99;100.00;67352.69;4993946;28;20734;-82
2023/08/09 07:54:20;;;;;;;0.30;0.30;;;;;;;-144.99;100.00;67352.69;4992440;28;20200;-81
2023/08/09 07:56:46;;;;;;;0.17;0.17;;;;;;;-144.99;100.00;67352.69;4995704;28;20192;-82
2023/08/09 07:59:11;;;;;;;0.10;0.10;;;;;;;-144.99;100.00;67352.69;4992361;28;20208;-81
2023/08/09 08:01:36;;;;;;;0.20;0.20;;;;;;;-144.99;100.00;67352.69;4995485;28;20238;-80
2023/08/09 08:04:02;;;;;;;0.33;0.33;;;;;;;-144.99;100.00;67352.69;4993124;28;20209;-80
2023/08/09 08:06:27;;;;;;;1.17;0.40;;;;;;;-144.99;100.00;67352.69;4992491;28;20185;-80
2023/08/09 08:08:53;;;;;;;1.13;1.13;;;;;;;-144.99;100.00;67352.69;4992659;28;20185;-81
2023/08/09 08:11:18;;;;;;;0.40;0.40;;;;;;;-144.99;100.00;67352.69;4991470;28;20396;-80
2023/08/09 08:13:43;;;;;;;0.00;0.00;;;;;;;-144.99;100.00;67352.69;4990153;28;20636;-80
2023/08/09 08:16:09;;;;;;;0.63;0.63;;;;;;;-144.99;100.00;67352.69;4992435;28;20180;-81
2023/08/09 08:18:34;;;;;;;0.20;0.20;;;;;;;-144.99;100.00;67352.69;4992508;28;20235;-80
2023/08/09 08:21:01;;;;;;;4.73;0.53;;;;;;;-144.99;100.00;67352.69;4992497;28;20557;-80
2023/08/09 08:23:27;;;;;;;0.20;0.20;;;;;;;-144.99;100.00;67352.69;4990585;28;20208;-80
2023/08/09 08:25:52;;;;;;;3.50;0.70;;;;;;;-144.99;100.00;67352.69;4991207;28;20191;-81
2023/08/09 08:28:17;;;;;;;0.43;0.43;;;;;;;-144.99;100.00;67352.69;4992241;28;20758;-81
2023/08/09 08:30:43;;;;;;;2.17;1.10;;;;;;;-144.99;100.00;67352.69;4992373;28;20185;-81
2023/08/09 08:33:08;;;;;;;5.10;2.63;;;;;;;-144.99;100.00;67352.69;4992120;28;20239;-81
2023/08/09 08:35:36;;;;;;;0.10;0.10;;;;;;;-144.99;100.00;67352.69;4991295;28;20201;-81
2023/08/09 08:38:02;;;;;;;0.73;0.50;;;;;;;-144.99;100.00;67352.69;4991488;28;20596;-81
2023/08/09 08:40:27;;;;;;;4.20;0.57;;;;;;;-144.99;100.00;67352.69;4992237;28;20261;-81
2023/08/09 08:42:53;;;;;;;0.10;0.10;;;;;;;-144.99;100.00;67352.69;4990086;28;20664;-81
2023/08/09 08:45:19;;;;;;;0.00;0.00;;;;;;;-144.99;100.00;67352.69;4990993;28;20279;-81
2023/08/09 08:47:46;;;;;;;0.17;0.17;;;;;;;-144.99;100.00;67352.69;4992419;28;20212;-81
2023/08/09 08:50:13;;;;;;;0.00;0.00;;;;;;;-144.99;100.00;67352.69;4992365;28;20667;-81
2023/08/09 08:52:42;;;;;;;0.00;0.00;;;;;;;-144.99;100.00;67352.69;4990413;28;20565;-81
2023/08/09 08:55:09;;;;;;;0.00;0.00;;;;;;;-144.99;100.00;67352.69;4990874;28;20197;-81
2023/08/09 08:57:35;;;;;;;0.20;0.20;;;;;;;-144.99;100.00;67352.69;4992087;28;20177;-81
2023/08/09 09:00:08;;;;;;;0.00;0.00;;;;;;;-144.99;100.00;67352.69;4990524;28;20682;-80
2023/08/09 09:02:36;;;;;;;1.80;0.60;;;;;;;-144.99;100.00;67352.69;4991746;28;20177;-81
2023/08/09 09:05:03;;;;;;;20.97;0.60;;;;;;;-144.99;100.00;67352.69;4990593;28;20224;-81
2023/08/09 09:07:29;;;;;;;0.00;0.00;;;;;;;-144.99;100.00;67352.69;4990679;28;20196;-80
2023/08/09 09:10:03;;;;;;;0.03;0.03;;;;;;;-144.99;100.00;67352.69;4991832;28;20539;-81
2023/08/09 09:12:29;;;;;;;0.77;0.77;;;;;;;-144.99;100.00;67352.69;4991577;28;20614;-81
2023/08/09 09:14:54;;;;;;;0.30;0.30;;;;;;;-144.99;100.00;67352.69;4990693;28;20284;-80
2023/08/09 09:17:20;;;;;;;0.23;0.23;;;;;;;-144.99;100.00;67352.69;4991960;28;20187;-81
2023/08/09 09:19:46;;;;;;;0.00;0.00;;;;;;;-144.99;100.00;67352.69;4992147;28;20204;-81
2023/08/09 09:22:29;;;;;;;0.20;0.20;;;;;;;-144.99;100.00;67352.69;4991963;28;20267;-81
2023/08/09 09:24:59;;;;;;;0.30;0.30;;;;;;;-144.99;100.00;67352.69;4992109;28;20197;-80
2023/08/09 09:27:33;;;;;;;0.30;0.30;;;;;;;-144.99;100.00;67352.69;4990855;28;20289;-81
2023/08/09 09:30:13;;;;;;;0.10;0.10;;;;;;;-144.99;100.00;67352.69;4990540;28;20532;-81
2023/08/09 09:32:54;;;;;;;0.20;0.20;;;;;;;-144.99;100.00;67352.69;4990099;28;20189;-81
2023/08/09 09:35:21;;;;;;;0.20;0.20;;;;;;;-144.99;100.00;67352.69;4991823;28;20205;-81
2023/08/09 09:37:47;;;;;;;0.00;0.00;;;;;;;-144.99;100.00;67352.69;4991839;28;20189;-81
2023/08/09 09:40:22;;;;;;;0.30;0.30;;;;;;;-144.99;100.00;67352.69;4993131;28;20191;-81
2023/08/09 09:42:52;;;;;;;0.00;0.00;;;;;;;-144.99;100.00;67352.69;4994398;28;20168;-81
2023/08/09 09:45:21;;;;;;;0.30;0.30;;;;;;;-144.99;100.00;67352.69;4995077;28;20205;-81
2023/08/09 09:47:46;;;;;;;0.10;0.10;;;;;;;-144.99;100.00;67352.69;4995273;28;20184;-81
2023/08/09 09:50:11;;;;;;;2.33;0.23;;;;;;;-144.99;100.00;67352.69;4993927;28;20181;-81
2023/08/09 09:52:39;;;;;;;0.00;0.00;;;;;;;-144.99;100.00;67352.69;4994519;28;20185;-81
2023/08/09 09:55:07;;;;;;;0.37;0.10;;;;;;;-144.99;100.00;67352.69;4995289;28;20207;-81
2023/08/09 09:57:33;;;;;;;0.17;0.17;;;;;;;-144.99;100.00;67352.69;4994980;28;20268;-80
2023/08/09 09:59:59;;;;;;;0.00;0.00;;;;;;;-144.99;100.00;67352.69;4995008;28;20276;-81
2023/08/09 10:02:47;;;;;;;0.00;0.00;;;;;;;-144.99;100.00;67352.69;4993986;28;20188;-81
2023/08/09 10:05:18;;;;;;;0.00;0.00;;;;;;;-144.99;100.00;67352.69;4994675;28;20212;-81
2023/08/09 10:07:46;;;;;;;2.20;0.10;;;;;;;-144.99;100.00;67352.69;4994861;28;20193;-81
2023/08/09 10:10:12;;;;;;;0.20;0.20;;;;;;;-144.99;100.00;67352.69;4993620;28;20221;-81
2023/08/09 10:12:42;;;;;;;0.20;0.20;;;;;;;-144.99;100.00;67352.69;4994064;28;20181;-81
2023/08/09 10:15:11;;;;;;;0.10;0.10;;;;;;;-144.99;100.00;67352.69;4994705;28;20257;-81
2023/08/09 10:17:38;;;;;;;0.70;0.30;;;;;;;-144.99;100.00;67352.69;4993551;28;20205;-81
2023/08/09 10:20:05;;;;;;;41.93;24.20;;;;;;;-144.99;100.00;67352.69;4994602;28;20243;-81
2023/08/09 10:22:31;;;;;;;1.43;1.33;;;;;;;-144.99;100.00;67352.69;4992914;28;20671;-81
2023/08/09 10:24:57;;;;;;;0.20;0.20;;;;;;;-144.99;100.00;67352.69;4994912;28;20212;-81
2023/08/09 10:27:51;;;;;;;0.13;0.13;;;;;;;-144.99;100.00;67352.69;4993988;28;20275;-82
2023/08/09 10:30:19;;;;;;;1.77;1.17;;;;;;;-144.99;100.00;67352.69;4995823;28;20656;-81
2023/08/09 10:32:55;;;;;;;0.20;0.20;;;;;;;-144.99;100.00;67352.69;4997046;28;20552;-81
2023/08/09 10:35:50;;;;;;;3.37;3.17;;;;;;;-144.99;100.00;67352.69;4994515;28;20334;-81
2023/08/09 10:38:21;;;;;;;0.20;0.20;;;;;;;-144.99;100.00;67352.69;4988114;28;20231;-81
2023/08/09 10:40:51;;;;;;;0.00;0.00;;;;;;;-144.99;100.00;67352.69;4995197;28;20185;-81
2023/08/09 10:43:20;;;;;;;0.00;0.00;;;;;;;-144.99;100.00;67352.69;4993910;28;20177;-81
2023/08/09 10:45:46;;;;;;;0.00;0.00;;;;;;;-144.99;100.00;67352.69;4995020;28;20559;-82
2023/08/09 10:48:30;;;;;;;0.20;0.20;;;;;;;-144.99;100.00;67352.69;4994832;28;20185;-81
2023/08/09 10:51:02;;;;;;;0.37;0.37;;;;;;;-144.99;100.00;67352.69;4994324;28;20258;-81
2023/08/09 10:53:28;;;;;;;0.43;0.37;;;;;;;-144.99;100.00;67352.69;4992616;28;20177;-82
2023/08/09 10:55:57;;;;;;;0.00;0.00;;;;;;;-144.99;100.00;67352.69;4993117;28;20187;-81
2023/08/09 10:58:28;;;;;;;0.13;0.13;;;;;;;-144.99;100.00;67352.69;4993024;28;20236;-82
2023/08/09 11:00:54;;;;;;;0.03;0.03;;;;;;;-144.99;100.00;67352.69;4994576;28;20188;-81
2023/08/09 11:03:22;;;;;;;1.60;1.30;;;;;;;-144.99;100.00;67352.69;4993698;28;20181;-81
2023/08/09 11:05:48;;;;;;;4.43;4.03;;;;;;;-144.99;100.00;67352.69;4992774;28;20197;-81
2023/08/09 11:08:17;;;;;;;12.63;5.20;;;;;;;-144.99;100.00;67352.69;4993990;28;20271;-81